sensor_id;sensor_type;location;lat;lon;timestamp;pressure;altitude;pressure_sealevel;temperature;humidity
49949;BME280;35840;45.982;8.890;2023-02-12T00:02:25;99953.16;;;1.93;59.22
49949;BME280;35840;45.982;8.890;2023-02-12T00:04:52;99942.19;;;2.00;59.19
49949;BME280;35840;45.982;8.890;2023-02-12T00:07:19;99945.59;;;1.99;59.36
49949;BME280;35840;45.982;8.890;2023-02-12T00:09:45;99926.13;;;1.95;59.55
49949;BME280;35840;45.982;8.890;2023-02-12T00:12:12;99937.97;;;1.99;59.11
49949;BME280;35840;45.982;8.890;2023-02-12T00:14:39;99912.59;;;1.82;58.99
49949;BME280;35840;45.982;8.890;2023-02-12T00:17:06;99934.56;;;1.97;59.04
49949;BME280;35840;45.982;8.890;2023-02-12T00:19:32;99925.28;;;2.14;58.57
49949;BME280;35840;45.982;8.890;2023-02-12T00:21:59;99924.44;;;2.06;58.86
49949;BME280;35840;45.982;8.890;2023-02-12T00:24:26;99929.50;;;2.09;58.86
49949;BME280;35840;45.982;8.890;2023-02-12T00:26:53;99927.81;;;2.14;58.58
49949;BME280;35840;45.982;8.890;2023-02-12T00:29:20;99925.28;;;2.05;58.53
49949;BME280;35840;45.982;8.890;2023-02-12T00:31:47;99922.72;;;2.08;58.72
49949;BME280;35840;45.982;8.890;2023-02-12T00:34:14;99917.66;;;2.03;58.81
49949;BME280;35840;45.982;8.890;2023-02-12T00:36:41;99918.50;;;2.01;58.58
49949;BME280;35840;45.982;8.890;2023-02-12T00:39:09;99916.84;;;2.04;58.93
49949;BME280;35840;45.982;8.890;2023-02-12T00:41:36;99913.44;;;2.04;58.69
49949;BME280;35840;45.982;8.890;2023-02-12T00:44:02;99915.97;;;1.98;58.79
49949;BME280;35840;45.982;8.890;2023-02-12T00:46:29;99926.97;;;1.86;58.73
49949;BME280;35840;45.982;8.890;2023-02-12T00:48:56;99920.19;;;1.91;59.12
49949;BME280;35840;45.982;8.890;2023-02-12T00:51:23;99921.06;;;1.92;59.12
49949;BME280;35840;45.982;8.890;2023-02-12T00:53:49;99915.97;;;1.85;59.15
49949;BME280;35840;45.982;8.890;2023-02-12T00:56:16;99926.13;;;1.90;58.96
49949;BME280;35840;45.982;8.890;2023-02-12T00:58:43;99916.84;;;1.89;59.22
49949;BME280;35840;45.982;8.890;2023-02-12T01:01:10;99912.59;;;1.91;59.42
49949;BME280;35840;45.982;8.890;2023-02-12T01:03:36;99903.28;;;1.88;59.34
49949;BME280;35840;45.982;8.890;2023-02-12T01:06:04;99901.59;;;1.94;59.42
49949;BME280;35840;45.982;8.890;2023-02-12T01:08:31;99902.44;;;1.93;58.61
49949;BME280;35840;45.982;8.890;2023-02-12T01:11:01;99903.31;;;1.90;59.20
49949;BME280;35840;45.982;8.890;2023-02-12T01:13:29;99902.44;;;1.89;58.94
49949;BME280;35840;45.982;8.890;2023-02-12T01:18:30;99912.63;;;1.96;59.17
49949;BME280;35840;45.982;8.890;2023-02-12T01:20:57;99908.38;;;1.92;59.05
49949;BME280;35840;45.982;8.890;2023-02-12T01:23:24;99910.06;;;1.82;59.51
49949;BME280;35840;45.982;8.890;2023-02-12T01:25:51;99915.13;;;1.66;59.72
49949;BME280;35840;45.982;8.890;2023-02-12T01:28:18;99906.69;;;1.70;59.94
49949;BME280;35840;45.982;8.890;2023-02-12T01:30:45;99915.13;;;1.68;59.59
49949;BME280;35840;45.982;8.890;2023-02-12T01:33:12;99905.84;;;1.73;59.95
49949;BME280;35840;45.982;8.890;2023-02-12T01:35:39;99897.41;;;1.80;59.46
49949;BME280;35840;45.982;8.890;2023-02-12T01:38:06;99894.00;;;1.87;59.33
49949;BME280;35840;45.982;8.890;2023-02-12T01:40:32;99906.69;;;1.86;59.34
49949;BME280;35840;45.982;8.890;2023-02-12T01:43:00;99903.31;;;1.75;59.46
49949;BME280;35840;45.982;8.890;2023-02-12T01:47:55;99899.06;;;1.63;59.65
49949;BME280;35840;45.982;8.890;2023-02-12T01:50:22;99902.44;;;1.72;59.30
49949;BME280;35840;45.982;8.890;2023-02-12T01:52:53;99899.09;;;1.69;59.24
49949;BME280;35840;45.982;8.890;2023-02-12T01:55:21;99894.84;;;1.72;59.65
49949;BME280;35840;45.982;8.890;2023-02-12T01:57:48;99891.44;;;1.63;59.50
49949;BME280;35840;45.982;8.890;2023-02-12T02:00:20;99893.13;;;1.54;60.05
49949;BME280;35840;45.982;8.890;2023-02-12T02:02:51;99896.50;;;1.49;60.27
49949;BME280;35840;45.982;8.890;2023-02-12T02:05:43;99894.81;;;1.59;60.33
49949;BME280;35840;45.982;8.890;2023-02-12T02:08:11;99894.84;;;1.68;59.99
49949;BME280;35840;45.982;8.890;2023-02-12T02:10:38;99894.84;;;1.63;59.50
49949;BME280;35840;45.982;8.890;2023-02-12T02:13:06;99881.31;;;1.50;60.23
49949;BME280;35840;45.982;8.890;2023-02-12T02:15:56;99878.78;;;1.57;60.77
49949;BME280;35840;45.982;8.890;2023-02-12T02:18:52;99880.47;;;1.56;60.31
49949;BME280;35840;45.982;8.890;2023-02-12T02:21:45;99872.84;;;1.45;60.95
49949;BME280;35840;45.982;8.890;2023-02-12T02:24:39;99863.59;;;1.50;60.67
49949;BME280;35840;45.982;8.890;2023-02-12T02:27:53;99863.56;;;1.60;59.50
49949;BME280;35840;45.982;8.890;2023-02-12T02:33:02;99858.50;;;1.50;60.35
49949;BME280;35840;45.982;8.890;2023-02-12T02:35:51;99862.72;;;1.48;60.07
49949;BME280;35840;45.982;8.890;2023-02-12T02:38:21;99851.75;;;1.57;60.56
49949;BME280;35840;45.982;8.890;2023-02-12T02:41:03;99855.13;;;1.59;59.96
49949;BME280;35840;45.982;8.890;2023-02-12T02:43:37;99848.34;;;1.47;60.00
49949;BME280;35840;45.982;8.890;2023-02-12T02:46:22;99855.97;;;1.41;60.35
49949;BME280;35840;45.982;8.890;2023-02-12T02:48:54;99850.06;;;1.56;59.81
49949;BME280;35840;45.982;8.890;2023-02-12T02:51:44;99844.97;;;1.51;59.82
49949;BME280;35840;45.982;8.890;2023-02-12T02:54:15;99839.91;;;1.48;59.26
49949;BME280;35840;45.982;8.890;2023-02-12T02:56:45;99851.72;;;1.40;59.88
49949;BME280;35840;45.982;8.890;2023-02-12T02:59:19;99853.41;;;1.30;59.72
49949;BME280;35840;45.982;8.890;2023-02-12T03:01:59;99839.03;;;1.20;59.87
49949;BME280;35840;45.982;8.890;2023-02-12T03:04:31;99841.59;;;1.31;60.31
49949;BME280;35840;45.982;8.890;2023-02-12T03:07:07;99840.75;;;1.36;59.89
49949;BME280;35840;45.982;8.890;2023-02-12T03:09:59;99846.66;;;1.35;59.89
49949;BME280;35840;45.982;8.890;2023-02-12T03:12:50;99845.81;;;1.30;60.05
49949;BME280;35840;45.982;8.890;2023-02-12T03:17:48;99840.69;;;1.13;60.58
49949;BME280;35840;45.982;8.890;2023-02-12T03:20:23;99839.06;;;1.26;59.93
49949;BME280;35840;45.982;8.890;2023-02-12T03:22:57;99841.59;;;1.26;60.18
49949;BME280;35840;45.982;8.890;2023-02-12T03:25:32;99837.34;;;1.16;60.03
49949;BME280;35840;45.982;8.890;2023-02-12T03:28:14;99843.28;;;1.19;59.95
49949;BME280;35840;45.982;8.890;2023-02-12T03:36:55;99838.19;;;1.15;59.51
49949;BME280;35840;45.982;8.890;2023-02-12T03:39:34;99839.88;;;1.19;60.39
49949;BME280;35840;45.982;8.890;2023-02-12T03:42:09;99839.88;;;1.17;59.88
49949;BME280;35840;45.982;8.890;2023-02-12T03:50:16;99838.16;;;1.07;60.50
49949;BME280;35840;45.982;8.890;2023-02-12T03:52:45;99841.56;;;1.09;60.37
49949;BME280;35840;45.982;8.890;2023-02-12T03:55:13;99849.97;;;1.02;60.70
49949;BME280;35840;45.982;8.890;2023-02-12T03:57:43;99858.38;;;0.95;61.70
49949;BME280;35840;45.982;8.890;2023-02-12T04:00:15;99837.31;;;1.02;61.12
49949;BME280;35840;45.982;8.890;2023-02-12T04:02:46;99844.06;;;1.03;61.02
49949;BME280;35840;45.982;8.890;2023-02-12T04:05:21;99853.38;;;1.10;60.64
49949;BME280;35840;45.982;8.890;2023-02-12T04:07:48;99860.97;;;1.10;60.68
49949;BME280;35840;45.982;8.890;2023-02-12T04:10:16;99860.09;;;0.96;60.69
49949;BME280;35840;45.982;8.890;2023-02-12T04:13:06;99866.00;;;0.95;61.11
49949;BME280;35840;45.982;8.890;2023-02-12T04:18:35;99867.72;;;1.03;60.78
49949;BME280;35840;45.982;8.890;2023-02-12T04:21:20;99868.50;;;0.84;61.42
49949;BME280;35840;45.982;8.890;2023-02-12T04:24:11;99872.69;;;0.80;61.14
49949;BME280;35840;45.982;8.890;2023-02-12T04:27:08;99866.78;;;0.80;61.64
49949;BME280;35840;45.982;8.890;2023-02-12T04:32:37;99876.94;;;0.91;60.71
49949;BME280;35840;45.982;8.890;2023-02-12T04:37:54;99875.22;;;0.74;61.49
49949;BME280;35840;45.982;8.890;2023-02-12T04:40:22;99867.56;;;0.68;61.36
49949;BME280;35840;45.982;8.890;2023-02-12T04:42:51;99862.50;;;0.62;62.39
49949;BME280;35840;45.982;8.890;2023-02-12T04:45:31;99862.56;;;0.73;62.57
49949;BME280;35840;45.982;8.890;2023-02-12T04:47:59;99859.97;;;0.66;62.04
49949;BME280;35840;45.982;8.890;2023-02-12T04:50:37;99859.16;;;0.67;62.94
49949;BME280;35840;45.982;8.890;2023-02-12T04:53:04;99858.31;;;0.70;62.57
49949;BME280;35840;45.982;8.890;2023-02-12T04:55:31;99861.69;;;0.72;62.96
49949;BME280;35840;45.982;8.890;2023-02-12T04:57:57;99854.09;;;0.66;62.62
49949;BME280;35840;45.982;8.890;2023-02-12T05:00:24;99860.91;;;0.81;62.42
49949;BME280;35840;45.982;8.890;2023-02-12T05:02:51;99854.13;;;0.80;62.50
49949;BME280;35840;45.982;8.890;2023-02-12T05:05:17;99853.31;;;0.82;61.65
49949;BME280;35840;45.982;8.890;2023-02-12T05:07:44;99857.50;;;0.73;62.46
49949;BME280;35840;45.982;8.890;2023-02-12T05:10:11;99849.06;;;0.80;62.26
49949;BME280;35840;45.982;8.890;2023-02-12T05:12:38;99854.97;;;0.83;61.43
49949;BME280;35840;45.982;8.890;2023-02-12T05:15:05;99853.31;;;0.81;61.44
49949;BME280;35840;45.982;8.890;2023-02-12T05:17:35;99856.66;;;0.78;62.30
49949;BME280;35840;45.982;8.890;2023-02-12T05:20:03;99852.44;;;0.76;62.20
49949;BME280;35840;45.982;8.890;2023-02-12T05:22:36;99846.53;;;0.77;62.06
49949;BME280;35840;45.982;8.890;2023-02-12T05:25:03;99843.13;;;0.72;62.90
49949;BME280;35840;45.982;8.890;2023-02-12T05:27:30;99815.16;;;0.42;62.98
49949;BME280;35840;45.982;8.890;2023-02-12T05:29:57;99841.38;;;0.55;62.78
49949;BME280;35840;45.982;8.890;2023-02-12T05:32:24;99837.19;;;0.63;62.12
49949;BME280;35840;45.982;8.890;2023-02-12T05:34:51;99846.47;;;0.61;63.01
49949;BME280;35840;45.982;8.890;2023-02-12T05:37:17;99833.81;;;0.61;62.37
49949;BME280;35840;45.982;8.890;2023-02-12T05:39:51;99812.69;;;0.55;62.03
49949;BME280;35840;45.982;8.890;2023-02-12T05:42:31;99839.72;;;0.62;62.80
49949;BME280;35840;45.982;8.890;2023-02-12T05:45:06;99838.06;;;0.70;63.00
49949;BME280;35840;45.982;8.890;2023-02-12T05:47:42;99836.38;;;0.71;62.98
49949;BME280;35840;45.982;8.890;2023-02-12T05:50:09;99833.84;;;0.69;62.67
49949;BME280;35840;45.982;8.890;2023-02-12T05:52:35;99837.19;;;0.68;62.29
49949;BME280;35840;45.982;8.890;2023-02-12T05:55:02;99834.72;;;0.76;62.19
49949;BME280;35840;45.982;8.890;2023-02-12T05:57:29;99831.28;;;0.60;62.83
49949;BME280;35840;45.982;8.890;2023-02-12T05:59:56;99833.81;;;0.58;63.09
49949;BME280;35840;45.982;8.890;2023-02-12T06:02:22;99832.13;;;0.57;62.95
49949;BME280;35840;45.982;8.890;2023-02-12T06:04:49;99826.25;;;0.66;63.12
49949;BME280;35840;45.982;8.890;2023-02-12T06:07:16;99830.44;;;0.59;62.33
49949;BME280;35840;45.982;8.890;2023-02-12T06:09:43;99835.47;;;0.55;63.20
49949;BME280;35840;45.982;8.890;2023-02-12T06:12:09;99834.66;;;0.56;63.04
49949;BME280;35840;45.982;8.890;2023-02-12T06:14:36;99838.00;;;0.56;62.44
49949;BME280;35840;45.982;8.890;2023-02-12T06:17:03;99816.00;;;0.37;62.78
49949;BME280;35840;45.982;8.890;2023-02-12T06:19:29;99839.72;;;0.56;63.05
49949;BME280;35840;45.982;8.890;2023-02-12T06:21:56;99846.47;;;0.60;62.86
49949;BME280;35840;45.982;8.890;2023-02-12T06:24:23;99843.94;;;0.58;62.65
49949;BME280;35840;45.982;8.890;2023-02-12T06:26:50;99842.25;;;0.59;63.15
49949;BME280;35840;45.982;8.890;2023-02-12T06:29:18;99849.84;;;0.57;63.29
49949;BME280;35840;45.982;8.890;2023-02-12T06:31:45;99848.13;;;0.56;63.45
49949;BME280;35840;45.982;8.890;2023-02-12T06:34:13;99849.84;;;0.60;63.21
49949;BME280;35840;45.982;8.890;2023-02-12T06:36:44;99850.66;;;0.55;63.45
49949;BME280;35840;45.982;8.890;2023-02-12T06:39:12;99853.19;;;0.53;62.54
49949;BME280;35840;45.982;8.890;2023-02-12T06:41:40;99861.59;;;0.50;63.48
49949;BME280;35840;45.982;8.890;2023-02-12T06:44:09;99849.81;;;0.53;63.61
49949;BME280;35840;45.982;8.890;2023-02-12T06:46:36;99870.91;;;0.55;62.56
49949;BME280;35840;45.982;8.890;2023-02-12T06:49:03;99873.44;;;0.55;63.43
49949;BME280;35840;45.982;8.890;2023-02-12T06:51:30;99868.31;;;0.42;63.24
49949;BME280;35840;45.982;8.890;2023-02-12T06:53:57;99864.03;;;0.32;64.43
49949;BME280;35840;45.982;8.890;2023-02-12T06:56:25;99869.19;;;0.47;64.39
49949;BME280;35840;45.982;8.890;2023-02-12T06:58:55;99876.78;;;0.47;64.47
49949;BME280;35840;45.982;8.890;2023-02-12T07:01:24;99876.78;;;0.50;63.32
49949;BME280;35840;45.982;8.890;2023-02-12T07:03:59;99880.13;;;0.42;63.34
49949;BME280;35840;45.982;8.890;2023-02-12T07:06:29;99881.75;;;0.38;63.57
49949;BME280;35840;45.982;8.890;2023-02-12T07:08:56;99875.06;;;0.40;63.48
49949;BME280;35840;45.982;8.890;2023-02-12T07:11:29;99875.09;;;0.51;63.55
49949;BME280;35840;45.982;8.890;2023-02-12T07:13:56;99884.38;;;0.57;63.62
49949;BME280;35840;45.982;8.890;2023-02-12T07:16:24;99881.84;;;0.55;64.33
49949;BME280;35840;45.982;8.890;2023-02-12T07:18:51;99882.66;;;0.45;63.98
49949;BME280;35840;45.982;8.890;2023-02-12T07:21:18;99887.69;;;0.39;64.69
49949;BME280;35840;45.982;8.890;2023-02-12T07:23:46;99878.47;;;0.50;65.06
49949;BME280;35840;45.982;8.890;2023-02-12T07:26:18;99887.75;;;0.51;64.61
49949;BME280;35840;45.982;8.890;2023-02-12T07:28:45;99891.94;;;0.46;64.89
49949;BME280;35840;45.982;8.890;2023-02-12T07:31:17;99894.47;;;0.46;64.58
49949;BME280;35840;45.982;8.890;2023-02-12T07:33:45;99899.56;;;0.54;65.08
49949;BME280;35840;45.982;8.890;2023-02-12T07:36:15;99897.94;;;0.66;64.98
49949;BME280;35840;45.982;8.890;2023-02-12T07:38:42;99892.88;;;0.62;65.55
49949;BME280;35840;45.982;8.890;2023-02-12T07:41:14;99905.50;;;0.59;65.31
49949;BME280;35840;45.982;8.890;2023-02-12T07:43:43;99902.22;;;0.75;66.10
49949;BME280;35840;45.982;8.890;2023-02-12T07:46:21;99904.75;;;0.75;65.50
49949;BME280;35840;45.982;8.890;2023-02-12T07:48:50;99898.00;;;0.73;66.66
49949;BME280;35840;45.982;8.890;2023-02-12T07:51:18;99915.72;;;0.80;66.20
49949;BME280;35840;45.982;8.890;2023-02-12T07:53:45;99910.72;;;0.88;66.80
49949;BME280;35840;45.982;8.890;2023-02-12T07:56:15;99899.78;;;1.01;67.56
49949;BME280;35840;45.982;8.890;2023-02-12T07:58:43;99900.66;;;1.03;67.57
49949;BME280;35840;45.982;8.890;2023-02-12T08:01:18;99901.50;;;1.09;66.51
49949;BME280;35840;45.982;8.890;2023-02-12T08:03:46;99901.50;;;1.12;66.62
49949;BME280;35840;45.982;8.890;2023-02-12T08:06:16;99894.75;;;1.17;66.10
49949;BME280;35840;45.982;8.890;2023-02-12T08:08:44;99893.09;;;1.31;65.58
49949;BME280;35840;45.982;8.890;2023-02-12T08:11:12;99900.69;;;1.37;65.44
49949;BME280;35840;45.982;8.890;2023-02-12T08:13:39;99883.84;;;1.38;64.67
49949;BME280;35840;45.982;8.890;2023-02-12T08:16:12;99897.38;;;1.51;64.46
49949;BME280;35840;45.982;8.890;2023-02-12T08:18:40;99902.44;;;1.59;64.94
49949;BME280;35840;45.982;8.890;2023-02-12T08:21:18;99904.13;;;1.63;64.38
49949;BME280;35840;45.982;8.890;2023-02-12T08:23:46;99898.25;;;1.73;64.01
49949;BME280;35840;45.982;8.890;2023-02-12T08:26:20;99904.97;;;1.76;63.65
49949;BME280;35840;45.982;8.890;2023-02-12T08:28:53;99899.94;;;1.83;63.59
49949;BME280;35840;45.982;8.890;2023-02-12T08:31:26;99898.22;;;1.87;63.78
49949;BME280;35840;45.982;8.890;2023-02-12T08:33:54;99899.06;;;1.98;63.16
49949;BME280;35840;45.982;8.890;2023-02-12T08:36:37;99892.31;;;2.02;63.01
49949;BME280;35840;45.982;8.890;2023-02-12T08:39:06;99906.69;;;2.18;62.95
49949;BME280;35840;45.982;8.890;2023-02-12T08:41:33;99903.28;;;2.26;63.08
49949;BME280;35840;45.982;8.890;2023-02-12T08:44:02;99908.34;;;2.33;63.16
49949;BME280;35840;45.982;8.890;2023-02-12T08:46:34;99910.03;;;2.36;62.80
49949;BME280;35840;45.982;8.890;2023-02-12T08:49:14;99903.25;;;2.41;62.61
49949;BME280;35840;45.982;8.890;2023-02-12T08:51:46;99895.63;;;2.43;62.49
49949;BME280;35840;45.982;8.890;2023-02-12T08:54:22;99893.09;;;2.39;61.08
49949;BME280;35840;45.982;8.890;2023-02-12T08:56:49;99899.84;;;2.48;61.08
49949;BME280;35840;45.982;8.890;2023-02-12T08:59:17;99905.72;;;2.56;61.04
49949;BME280;35840;45.982;8.890;2023-02-12T09:01:44;99904.03;;;2.65;61.35
49949;BME280;35840;45.982;8.890;2023-02-12T09:04:16;99909.09;;;2.74;60.47
49949;BME280;35840;45.982;8.890;2023-02-12T09:06:44;99914.13;;;2.80;60.12
49949;BME280;35840;45.982;8.890;2023-02-12T09:09:12;99910.69;;;2.89;59.15
49949;BME280;35840;45.982;8.890;2023-02-12T09:11:39;99908.94;;;3.08;60.44
49949;BME280;35840;45.982;8.890;2023-02-12T09:14:10;99909.72;;;3.21;58.94
49949;BME280;35840;45.982;8.890;2023-02-12T09:16:39;99898.69;;;3.25;58.86
49949;BME280;35840;45.982;8.890;2023-02-12T09:19:07;99907.13;;;3.35;58.34
49949;BME280;35840;45.982;8.890;2023-02-12T09:21:34;99908.66;;;3.57;59.07
49949;BME280;35840;45.982;8.890;2023-02-12T09:24:01;99903.50;;;3.67;59.62
49949;BME280;35840;45.982;8.890;2023-02-12T09:26:29;99902.59;;;3.75;60.32
49949;BME280;35840;45.982;8.890;2023-02-12T09:28:56;99907.63;;;3.82;59.97
49949;BME280;35840;45.982;8.890;2023-02-12T09:31:27;99905.00;;;3.91;61.09
49949;BME280;35840;45.982;8.890;2023-02-12T09:33:58;99910.03;;;3.99;60.17
49949;BME280;35840;45.982;8.890;2023-02-12T09:36:25;99900.63;;;4.07;59.94
49949;BME280;35840;45.982;8.890;2023-02-12T09:38:52;99898.00;;;4.16;59.85
49949;BME280;35840;45.982;8.890;2023-02-12T09:46:31;99903.75;;;4.38;57.37
49949;BME280;35840;45.982;8.890;2023-02-12T09:51:27;99903.59;;;4.54;55.45
49949;BME280;35840;45.982;8.890;2023-02-12T09:54:03;99906.06;;;4.58;56.39
49949;BME280;35840;45.982;8.890;2023-02-12T09:56:33;99904.31;;;4.63;58.15
49949;BME280;35840;45.982;8.890;2023-02-12T09:59:04;99910.97;;;4.77;55.02
49949;BME280;35840;45.982;8.890;2023-02-12T10:01:32;99917.72;;;4.79;54.23
49949;BME280;35840;45.982;8.890;2023-02-12T10:04:00;99912.34;;;5.03;56.17
49949;BME280;35840;45.982;8.890;2023-02-12T10:06:30;99911.28;;;5.21;52.90
49949;BME280;35840;45.982;8.890;2023-02-12T10:09:21;99913.66;;;5.31;52.44
49949;BME280;35840;45.982;8.890;2023-02-12T10:17:15;99925.97;;;5.62;50.99
49949;BME280;35840;45.982;8.890;2023-02-12T10:25:50;99918.84;;;5.84;52.86
49949;BME280;35840;45.982;8.890;2023-02-12T10:28:39;99921.19;;;6.00;52.47
49949;BME280;35840;45.982;8.890;2023-02-12T10:31:14;99926.38;;;5.92;51.01
49949;BME280;35840;45.982;8.890;2023-02-12T10:33:47;99921.84;;;6.11;51.61
49949;BME280;35840;45.982;8.890;2023-02-12T10:36:47;99928.41;;;6.25;51.82
49949;BME280;35840;45.982;8.890;2023-02-12T10:39:21;99920.66;;;6.29;51.91
49949;BME280;35840;45.982;8.890;2023-02-12T10:41:57;99917.72;;;6.52;53.56
49949;BME280;35840;45.982;8.890;2023-02-12T10:44:27;99920.25;;;6.54;51.90
49949;BME280;35840;45.982;8.890;2023-02-12T10:46:54;99905.59;;;6.64;51.35
49949;BME280;35840;45.982;8.890;2023-02-12T10:49:21;99911.19;;;6.81;51.14
49949;BME280;35840;45.982;8.890;2023-02-12T10:52:11;99907.66;;;6.87;49.90
49949;BME280;35840;45.982;8.890;2023-02-12T10:54:46;99900.88;;;6.86;50.33
49949;BME280;35840;45.982;8.890;2023-02-12T10:57:19;99905.81;;;6.95;49.38
49949;BME280;35840;45.982;8.890;2023-02-12T10:59:49;99895.75;;;6.86;50.29
49949;BME280;35840;45.982;8.890;2023-02-12T11:02:30;99904.19;;;6.91;49.24
49949;BME280;35840;45.982;8.890;2023-02-12T11:05:00;99899.25;;;7.22;49.66
49949;BME280;35840;45.982;8.890;2023-02-12T11:07:47;99887.22;;;7.28;48.24
49949;BME280;35840;45.982;8.890;2023-02-12T11:12:59;99891.34;;;7.33;50.72
49949;BME280;35840;45.982;8.890;2023-02-12T11:15:29;99888.13;;;7.25;49.10
49949;BME280;35840;45.982;8.890;2023-02-12T11:18:03;99877.22;;;7.17;49.62
49949;BME280;35840;45.982;8.890;2023-02-12T11:20:48;99876.28;;;7.21;50.89
49949;BME280;35840;45.982;8.890;2023-02-12T11:28:57;99871.53;;;7.43;50.33
49949;BME280;35840;45.982;8.890;2023-02-12T11:31:32;99866.41;;;7.43;50.38
49949;BME280;35840;45.982;8.890;2023-02-12T11:34:16;99872.19;;;7.50;52.09
49949;BME280;35840;45.982;8.890;2023-02-12T11:36:47;99872.59;;;7.34;53.61
49949;BME280;35840;45.982;8.890;2023-02-12T11:39:40;99856.94;;;7.09;53.08
49949;BME280;35840;45.982;8.890;2023-02-12T11:42:16;99863.09;;;7.00;51.95
49949;BME280;35840;45.982;8.890;2023-02-12T11:44:50;99847.75;;;6.99;51.19
49949;BME280;35840;45.982;8.890;2023-02-12T11:47:25;99846.72;;;7.09;49.66
49949;BME280;35840;45.982;8.890;2023-02-12T11:52:27;99834.69;;;7.50;47.76
49949;BME280;35840;45.982;8.890;2023-02-12T11:54:59;99854.38;;;7.83;47.29
49949;BME280;35840;45.982;8.890;2023-02-12T12:00:18;99842.53;;;8.12;45.57
49949;BME280;35840;45.982;8.890;2023-02-12T12:02:59;99845.41;;;8.32;46.31
49949;BME280;35840;45.982;8.890;2023-02-12T12:05:39;99838.16;;;8.48;46.20
49949;BME280;35840;45.982;8.890;2023-02-12T12:08:17;99827.81;;;8.51;44.93
49949;BME280;35840;45.982;8.890;2023-02-12T12:10:50;99836.81;;;8.66;44.17
49949;BME280;35840;45.982;8.890;2023-02-12T12:13:24;99833.25;;;8.70;44.39
49949;BME280;35840;45.982;8.890;2023-02-12T12:16:03;99832.94;;;8.81;45.08
49949;BME280;35840;45.982;8.890;2023-02-12T12:19:10;99829.94;;;8.96;43.46
49949;BME280;35840;45.982;8.890;2023-02-12T12:22:21;99828.38;;;9.19;43.45
49949;BME280;35840;45.982;8.890;2023-02-12T12:27:26;99823.94;;;9.53;43.15
49949;BME280;35840;45.982;8.890;2023-02-12T12:38:55;99804.31;;;10.00;43.41
49949;BME280;35840;45.982;8.890;2023-02-12T12:44:12;99810.38;;;9.74;42.63
49949;BME280;35840;45.982;8.890;2023-02-12T12:49:52;99804.31;;;10.00;41.75
49949;BME280;35840;45.982;8.890;2023-02-12T13:09:06;99772.56;;;11.39;37.94
49949;BME280;35840;45.982;8.890;2023-02-12T13:11:42;99773.38;;;11.62;37.41
49949;BME280;35840;45.982;8.890;2023-02-12T13:27:32;99770.72;;;11.43;38.82
49949;BME280;35840;45.982;8.890;2023-02-12T13:30:14;99758.72;;;11.21;38.72
49949;BME280;35840;45.982;8.890;2023-02-12T13:32:45;99760.31;;;11.03;38.66
49949;BME280;35840;45.982;8.890;2023-02-12T13:35:18;99759.72;;;11.17;39.03
49949;BME280;35840;45.982;8.890;2023-02-12T13:37:48;99746.31;;;11.51;38.32
49949;BME280;35840;45.982;8.890;2023-02-12T13:40:28;99754.66;;;11.98;37.18
49949;BME280;35840;45.982;8.890;2023-02-12T13:43:15;99755.34;;;11.82;37.46
49949;BME280;35840;45.982;8.890;2023-02-12T13:46:02;99757.13;;;12.01;36.18
49949;BME280;35840;45.982;8.890;2023-02-12T13:51:47;99757.69;;;12.08;37.25
49949;BME280;35840;45.982;8.890;2023-02-12T13:57:15;99755.28;;;12.43;36.96
49949;BME280;35840;45.982;8.890;2023-02-12T13:59:46;99753.19;;;12.32;37.06
49949;BME280;35840;45.982;8.890;2023-02-12T14:02:43;99756.88;;;12.26;37.02
49949;BME280;35840;45.982;8.890;2023-02-12T14:05:22;99766.22;;;12.67;34.69
49949;BME280;35840;45.982;8.890;2023-02-12T14:07:53;99763.88;;;12.99;34.19
49949;BME280;35840;45.982;8.890;2023-02-12T14:11:02;99758.72;;;12.99;33.41
49949;BME280;35840;45.982;8.890;2023-02-12T14:13:21;99767.00;;;13.23;34.22
49949;BME280;35840;45.982;8.890;2023-02-12T14:15:52;99757.66;;;13.20;34.57
49949;BME280;35840;45.982;8.890;2023-02-12T14:18:32;99763.88;;;13.34;34.30
49949;BME280;35840;45.982;8.890;2023-02-12T14:23:42;99766.38;;;13.54;34.66
49949;BME280;35840;45.982;8.890;2023-02-12T14:26:14;99756.78;;;13.56;35.19
49949;BME280;35840;45.982;8.890;2023-02-12T14:33:45;99767.03;;;13.40;34.24
49949;BME280;35840;45.982;8.890;2023-02-12T14:46:56;99773.97;;;13.21;35.71
49949;BME280;35840;45.982;8.890;2023-02-12T14:50:11;99771.78;;;13.13;35.94
49949;BME280;35840;45.982;8.890;2023-02-12T14:52:22;99763.41;;;13.08;35.43
49949;BME280;35840;45.982;8.890;2023-02-12T14:54:59;99771.03;;;13.29;35.77
49949;BME280;35840;45.982;8.890;2023-02-12T14:57:34;99784.06;;;13.45;35.22
49949;BME280;35840;45.982;8.890;2023-02-12T15:00:24;99782.19;;;13.48;34.96
49949;BME280;35840;45.982;8.890;2023-02-12T15:03:06;99789.94;;;13.48;35.17
49949;BME280;35840;45.982;8.890;2023-02-12T15:05:44;99770.44;;;13.41;33.52
49949;BME280;35840;45.982;8.890;2023-02-12T15:11:16;99786.13;;;13.55;33.99
49949;BME280;35840;45.982;8.890;2023-02-12T15:13:48;99798.03;;;13.58;33.61
49949;BME280;35840;45.982;8.890;2023-02-12T15:16:26;99798.50;;;13.49;33.97
49949;BME280;35840;45.982;8.890;2023-02-12T15:19:01;99798.75;;;13.44;34.26
49949;BME280;35840;45.982;8.890;2023-02-12T15:21:31;99799.34;;;13.49;34.92
49949;BME280;35840;45.982;8.890;2023-02-12T15:24:06;99804.19;;;13.38;35.98
49949;BME280;35840;45.982;8.890;2023-02-12T15:26:35;99811.19;;;13.36;35.39
49949;BME280;35840;45.982;8.890;2023-02-12T15:29:19;99817.53;;;13.29;37.26
49949;BME280;35840;45.982;8.890;2023-02-12T15:31:52;99817.97;;;13.19;36.46
49949;BME280;35840;45.982;8.890;2023-02-12T15:34:22;99828.44;;;13.16;36.94
49949;BME280;35840;45.982;8.890;2023-02-12T15:36:49;99825.19;;;13.13;36.04
49949;BME280;35840;45.982;8.890;2023-02-12T15:39:18;99830.41;;;13.11;34.13
49949;BME280;35840;45.982;8.890;2023-02-12T15:41:48;99825.81;;;12.99;33.97
49949;BME280;35840;45.982;8.890;2023-02-12T15:44:22;99831.97;;;12.96;32.72
49949;BME280;35840;45.982;8.890;2023-02-12T15:49:36;99832.59;;;12.44;33.99
49949;BME280;35840;45.982;8.890;2023-02-12T15:52:18;99839.88;;;12.34;34.31
49949;BME280;35840;45.982;8.890;2023-02-12T15:55:00;99842.75;;;12.08;34.33
49949;BME280;35840;45.982;8.890;2023-02-12T15:57:28;99846.25;;;12.07;34.47
49949;BME280;35840;45.982;8.890;2023-02-12T15:59:56;99853.66;;;12.14;34.96